createdAt,value
2024-01-27T00:02:37.256Z,99297.98
2024-01-27T00:05:38.741Z,99293.86
2024-01-27T00:08:39.933Z,99290.33
2024-01-27T00:11:40.881Z,99288.48
2024-01-27T00:14:41.872Z,99287.23
2024-01-27T00:17:43.019Z,99285.05
2024-01-27T00:20:44.125Z,99279.23
2024-01-27T00:23:45.211Z,99279.77
2024-01-27T00:26:46.510Z,99280.31
2024-01-27T00:29:47.546Z,99278.53
2024-01-27T00:32:48.603Z,99280.77
2024-01-27T00:35:49.760Z,99286.75
2024-01-27T00:38:50.779Z,99284.14
2024-01-27T00:41:53.294Z,99285.71
2024-01-27T00:44:54.314Z,99283.81
2024-01-27T00:47:55.731Z,99283.21
2024-01-27T00:50:56.752Z,99282.08
2024-01-27T00:53:57.793Z,99281.38
2024-01-27T00:56:58.736Z,99273.82
2024-01-27T00:59:59.816Z,99275.29
2024-01-27T01:03:00.998Z,99280.61
2024-01-27T01:06:02.030Z,99276.70
2024-01-27T01:09:03.094Z,99274.86
2024-01-27T01:12:04.887Z,99276.70
2024-01-27T01:15:06.541Z,99277.23
2024-01-27T01:18:07.667Z,99277.06
2024-01-27T01:21:08.757Z,99277.92
2024-01-27T01:24:09.795Z,99279.83
2024-01-27T01:30:51.669Z,99292.80
2024-01-27T01:33:52.736Z,99299.99
2024-01-27T01:36:54.948Z,99312.70
2024-01-27T01:39:56.125Z,99312.38
2024-01-27T01:42:59.797Z,99315.02
2024-01-27T01:46:00.957Z,99317.48
2024-01-27T01:49:02.765Z,99315.58
2024-01-27T01:52:04.571Z,99313.84
2024-01-27T01:55:06.161Z,99325.67
2024-01-27T01:58:07.193Z,99330.35
2024-01-27T02:01:08.762Z,99335.34
2024-01-27T02:04:09.789Z,99342.35
2024-01-27T02:07:10.939Z,99350.56
2024-01-27T02:10:16.742Z,99354.92
2024-01-27T02:13:21.995Z,99359.10
2024-01-27T02:16:23.031Z,99355.47
2024-01-27T02:19:25.057Z,99357.64
2024-01-27T02:22:26.243Z,99364.45
2024-01-27T02:25:27.222Z,99370.95
2024-01-27T02:28:28.192Z,99378.28
2024-01-27T02:31:29.380Z,99371.50
2024-01-27T02:34:30.551Z,99377.74
2024-01-27T02:37:31.905Z,99385.73
2024-01-27T02:40:32.874Z,99380.88
2024-01-27T02:43:33.862Z,99383.64
2024-01-27T02:46:35.037Z,99384.40
2024-01-27T02:49:36.439Z,99395.05
2024-01-27T02:52:37.782Z,99390.60
2024-01-27T02:55:38.755Z,99392.10
2024-01-27T02:58:41.750Z,99397.48
2024-01-27T03:01:42.750Z,99397.64
2024-01-27T03:04:43.803Z,99405.90
2024-01-27T03:07:44.992Z,99410.48
2024-01-27T03:10:46.223Z,99411.99
2024-01-27T03:13:47.199Z,99407.47
2024-01-27T03:16:48.109Z,99416.44
2024-01-27T03:19:49.913Z,99417.90
2024-01-27T03:22:51.017Z,99421.92
2024-01-27T03:25:52.145Z,99423.06
2024-01-27T03:28:53.144Z,99423.06
2024-01-27T03:31:54.093Z,99423.29
2024-01-27T03:34:55.080Z,99434.77
2024-01-27T03:37:56.284Z,99446.56
2024-01-27T03:40:59.167Z,99444.23
2024-01-27T03:44:00.114Z,99444.23
2024-01-27T03:47:01.093Z,99445.64
2024-01-27T03:50:02.153Z,99454.62
2024-01-27T03:53:03.223Z,99465.72
2024-01-27T03:56:05.289Z,99467.19
2024-01-27T03:59:07.267Z,99478.50
2024-01-27T04:02:08.312Z,99479.27
2024-01-27T04:05:09.285Z,99485.78
2024-01-27T04:08:10.283Z,99492.05
2024-01-27T04:11:20.438Z,99491.77
2024-01-27T04:14:21.329Z,99496.29
2024-01-27T04:17:23.262Z,99497.76
2024-01-27T04:20:24.459Z,99499.39
2024-01-27T04:23:25.386Z,99505.30
2024-01-27T04:26:26.505Z,99507.92
2024-01-27T04:29:27.433Z,99512.05
2024-01-27T04:32:28.654Z,99514.23
2024-01-27T04:35:29.638Z,99522.71
2024-01-27T04:38:30.627Z,99519.12
2024-01-27T04:41:31.843Z,99524.39
2024-01-27T04:44:33.943Z,99531.14
2024-01-27T04:47:35.104Z,99534.23
2024-01-27T04:50:36.449Z,99539.90
2024-01-27T04:53:37.413Z,99543.86
2024-01-27T04:56:38.902Z,99551.59
2024-01-27T04:59:40.077Z,99552.73
2024-01-27T05:02:42.347Z,99557.30
2024-01-27T05:05:43.970Z,99555.10
2024-01-27T05:08:45.531Z,99560.60
2024-01-27T05:11:46.587Z,99563.15
2024-01-27T05:14:47.634Z,99565.92
2024-01-27T05:17:48.697Z,99569.08
2024-01-27T05:20:50.289Z,99563.30
2024-01-27T05:23:51.299Z,99567.34
2024-01-27T05:26:52.467Z,99571.64
2024-01-27T05:29:53.444Z,99576.04
2024-01-27T05:32:54.545Z,99578.00
2024-01-27T05:35:55.629Z,99579.73
2024-01-27T05:38:56.670Z,99581.20
2024-01-27T05:41:57.655Z,99581.98
2024-01-27T05:44:58.772Z,99588.93
2024-01-27T05:47:59.947Z,99588.50
2024-01-27T05:51:02.624Z,99591.82
2024-01-27T05:54:03.953Z,99590.41
2024-01-27T05:57:05.413Z,99595.90
2024-01-27T06:00:07.018Z,99598.84
2024-01-27T06:03:08.064Z,99603.63
2024-01-27T06:06:09.320Z,99609.61
2024-01-27T06:09:12.175Z,99609.23
2024-01-27T06:12:13.384Z,99609.07
2024-01-27T06:15:16.178Z,99612.11
2024-01-27T06:18:17.270Z,99611.40
2024-01-27T06:21:18.753Z,99613.48
2024-01-27T06:24:19.838Z,99622.95
2024-01-27T06:27:20.937Z,99625.49
2024-01-27T06:30:21.932Z,99633.98
2024-01-27T06:33:23.018Z,99633.33
2024-01-27T06:36:25.289Z,99635.78
2024-01-27T06:39:26.595Z,99646.51
2024-01-27T06:42:27.742Z,99647.15
2024-01-27T06:45:28.749Z,99647.33
2024-01-27T06:48:29.852Z,99654.23
2024-01-27T06:51:30.924Z,99656.58
2024-01-27T06:54:32.122Z,99651.18
2024-01-27T06:57:33.557Z,99650.85
2024-01-27T07:00:34.631Z,99656.00
2024-01-27T07:03:35.676Z,99660.35
2024-01-27T07:06:36.748Z,99666.45
2024-01-27T07:09:37.780Z,99670.15
2024-01-27T07:12:39.188Z,99667.80
2024-01-27T07:15:40.197Z,99667.00
2024-01-27T07:18:41.511Z,99673.41
2024-01-27T07:21:42.743Z,99674.02
2024-01-27T07:24:43.972Z,99682.73
2024-01-27T07:27:45.379Z,99684.66
2024-01-27T07:30:46.596Z,99685.48
2024-01-27T07:33:47.811Z,99691.67
2024-01-27T07:36:49.866Z,99688.85
2024-01-27T07:39:50.838Z,99693.30
2024-01-27T07:42:51.957Z,99691.66
2024-01-27T07:45:54.253Z,99694.58
2024-01-27T07:48:55.242Z,99696.48
2024-01-27T07:51:56.322Z,99692.88
2024-01-27T07:54:57.209Z,99694.80
2024-01-27T07:57:58.728Z,99696.65
2024-01-27T08:01:00.092Z,99699.36
2024-01-27T08:04:01.206Z,99707.42
2024-01-27T08:07:06.749Z,99707.17
2024-01-27T08:10:11.547Z,99711.41
2024-01-27T08:13:12.582Z,99710.10
2024-01-27T08:16:14.864Z,99714.85
2024-01-27T08:19:20.649Z,99720.34
2024-01-27T08:22:21.804Z,99720.83
2024-01-27T08:25:22.753Z,99718.76
2024-01-27T08:28:24.917Z,99724.90
2024-01-27T08:31:25.952Z,99726.02
2024-01-27T08:34:27.223Z,99730.64
2024-01-27T08:37:28.310Z,99737.23
2024-01-27T08:40:29.279Z,99737.73
2024-01-27T08:43:30.176Z,99739.77
2024-01-27T08:46:31.197Z,99744.20
2024-01-27T08:49:32.268Z,99745.67
2024-01-27T08:52:35.686Z,99754.71
2024-01-27T08:55:37.956Z,99749.00
2024-01-27T08:58:38.904Z,99754.17
2024-01-27T09:01:39.917Z,99760.66
2024-01-27T09:04:40.944Z,99755.28
2024-01-27T09:07:41.931Z,99755.70
2024-01-27T09:10:42.892Z,99752.32
2024-01-27T09:13:45.873Z,99750.30
2024-01-27T09:16:47.614Z,99756.41
2024-01-27T09:19:48.926Z,99754.18
2024-01-27T09:22:51.210Z,99750.96
2024-01-27T09:25:52.222Z,99761.16
2024-01-27T09:28:56.107Z,99764.31
2024-01-27T09:31:57.198Z,99770.02
2024-01-27T09:34:58.905Z,99766.77
2024-01-27T09:37:59.918Z,99766.44
2024-01-27T09:41:00.893Z,99766.20
2024-01-27T09:44:03.424Z,99769.80
2024-01-27T09:47:05.902Z,99771.35
2024-01-27T09:50:11.563Z,99774.41
2024-01-27T09:53:12.877Z,99776.04
2024-01-27T09:56:18.476Z,99773.14
2024-01-27T09:59:21.617Z,99777.66
2024-01-27T10:02:25.625Z,99779.83
2024-01-27T10:05:28.372Z,99779.72
2024-01-27T10:08:29.367Z,99781.44
2024-01-27T10:11:33.774Z,99780.98
2024-01-27T10:14:41.227Z,99779.71
2024-01-27T10:17:42.216Z,99785.92
2024-01-27T10:20:44.278Z,99785.98
2024-01-27T10:23:45.506Z,99783.30
2024-01-27T10:26:48.279Z,99784.98
2024-01-27T10:29:54.825Z,99789.79
2024-01-27T10:32:59.656Z,99795.89
2024-01-27T10:36:01.043Z,99802.33
2024-01-27T10:39:02.026Z,99812.69
2024-01-27T10:42:04.519Z,99812.91
2024-01-27T10:45:06.096Z,99815.42
2024-01-27T10:48:12.857Z,99819.30
2024-01-27T10:51:19.170Z,99819.75
2024-01-27T10:54:28.066Z,99815.82
2024-01-27T10:57:34.161Z,99819.04
2024-01-27T11:00:35.621Z,99814.92
2024-01-27T11:03:40.685Z,99811.45
2024-01-27T11:06:43.836Z,99811.40
2024-01-27T11:09:46.005Z,99817.84
2024-01-27T11:12:49.541Z,99822.36
2024-01-27T11:15:59.081Z,99823.27
2024-01-27T11:19:00.445Z,99829.18
2024-01-27T11:22:05.296Z,99830.27
2024-01-27T11:25:15.245Z,99829.33
2024-01-27T11:28:17.429Z,99828.19
2024-01-27T11:31:19.944Z,99831.67
2024-01-27T11:34:21.501Z,99831.96
2024-01-27T11:37:25.749Z,99837.42
2024-01-27T11:40:26.737Z,99842.05
2024-01-27T11:43:28.418Z,99851.97
2024-01-27T11:46:29.582Z,99855.63
2024-01-27T11:49:30.905Z,99857.04
2024-01-27T11:52:31.975Z,99861.95
2024-01-27T11:55:32.980Z,99866.05
2024-01-27T11:58:34.201Z,99873.67
2024-01-27T12:01:37.200Z,99878.52
2024-01-27T12:04:40.266Z,99878.73
2024-01-27T12:07:41.405Z,99884.58
2024-01-27T12:10:42.364Z,99888.95
2024-01-27T12:13:43.349Z,99895.40
2024-01-27T12:16:45.051Z,99899.56
2024-01-27T12:19:52.726Z,99907.15
2024-01-27T12:23:07.131Z,99910.31
2024-01-27T12:26:15.238Z,99911.09
2024-01-27T12:29:16.254Z,99911.20
2024-01-27T12:32:18.484Z,99915.50
2024-01-27T12:35:19.661Z,99916.99
2024-01-27T12:38:21.048Z,99920.65
2024-01-27T12:41:22.104Z,99920.18
2024-01-27T12:44:23.111Z,99925.48
2024-01-27T12:47:24.219Z,99923.38
2024-01-27T12:50:25.354Z,99928.12
2024-01-27T12:53:26.913Z,99931.01
2024-01-27T12:56:27.892Z,99938.54
2024-01-27T12:59:29.135Z,99939.46
2024-01-27T13:02:30.243Z,99945.89
2024-01-27T13:05:31.222Z,99950.09
2024-01-27T13:08:32.531Z,99959.27
2024-01-27T13:11:33.792Z,99968.15
2024-01-27T13:14:34.830Z,99970.23
2024-01-27T13:17:35.823Z,99979.66
2024-01-27T13:20:37.593Z,99981.20
2024-01-27T13:23:38.643Z,99985.90
2024-01-27T13:26:39.686Z,99987.91
2024-01-27T13:29:40.635Z,99987.36
2024-01-27T13:32:42.194Z,99992.81
2024-01-27T13:35:47.083Z,99994.63
2024-01-27T13:38:48.057Z,100003.89
2024-01-27T13:41:49.075Z,100009.56
2024-01-27T13:44:50.049Z,100013.92
2024-01-27T13:47:50.999Z,100016.05
2024-01-27T13:50:53.511Z,100020.41
2024-01-27T13:53:54.488Z,100027.71
2024-01-27T13:56:55.571Z,100031.32
2024-01-27T13:59:57.201Z,100040.91
2024-01-27T14:02:58.326Z,100048.00
2024-01-27T14:05:59.445Z,100054.38
2024-01-27T14:09:01.366Z,100060.92
2024-01-27T14:12:02.444Z,100059.09
2024-01-27T14:15:09.135Z,100066.11
2024-01-27T14:18:14.577Z,100068.54
2024-01-27T14:21:15.583Z,100071.55
2024-01-27T14:24:16.595Z,100074.86
2024-01-27T14:27:18.714Z,100079.74
2024-01-27T14:30:19.757Z,100087.85
2024-01-27T14:33:21.466Z,100091.38
2024-01-27T14:36:24.100Z,100098.95
2024-01-27T14:39:25.106Z,100102.44
2024-01-27T14:42:26.129Z,100106.36
2024-01-27T14:45:27.218Z,100111.29
2024-01-27T14:48:28.448Z,100112.23
2024-01-27T14:51:29.587Z,100113.98
2024-01-27T14:54:30.592Z,100123.64
2024-01-27T14:57:31.703Z,100136.33
2024-01-27T15:00:32.820Z,100140.35
2024-01-27T15:03:34.279Z,100141.83
2024-01-27T15:06:35.703Z,100144.05
2024-01-27T15:09:36.751Z,100154.02
2024-01-27T15:12:38.217Z,100156.13
2024-01-27T15:15:40.211Z,100161.62
2024-01-27T15:18:45.102Z,100166.73
2024-01-27T15:21:46.484Z,100175.48
2024-01-27T15:24:47.475Z,100183.21
2024-01-27T15:27:48.739Z,100189.02
2024-01-27T15:30:50.086Z,100197.82
2024-01-27T15:33:51.493Z,100204.30
2024-01-27T15:36:52.738Z,100211.61
2024-01-27T15:39:54.005Z,100222.14
2024-01-27T15:42:56.307Z,100228.56
2024-01-27T15:45:57.400Z,100230.95
2024-01-27T15:48:58.514Z,100236.15
2024-01-27T15:51:59.659Z,100240.33
2024-01-27T15:55:00.633Z,100241.06
2024-01-27T15:58:02.240Z,100249.42
2024-01-27T16:01:03.539Z,100261.58
2024-01-27T16:04:04.585Z,100263.46
2024-01-27T16:07:05.604Z,100270.64
2024-01-27T16:10:07.088Z,100278.19
2024-01-27T16:13:08.158Z,100282.02
2024-01-27T16:16:09.182Z,100294.54
2024-01-27T16:19:10.436Z,100299.86
2024-01-27T16:22:11.499Z,100307.15
2024-01-27T16:25:12.431Z,100308.45
2024-01-27T16:28:13.477Z,100310.67
2024-01-27T16:31:15.186Z,100317.42
2024-01-27T16:34:16.268Z,100317.71
2024-01-27T16:37:18.447Z,100319.59
2024-01-27T16:40:19.904Z,100326.32
2024-01-27T16:43:20.874Z,100335.52
2024-01-27T16:46:25.225Z,100340.85
2024-01-27T16:49:26.553Z,100344.16
2024-01-27T16:52:27.808Z,100349.41
2024-01-27T16:55:28.803Z,100354.70
2024-01-27T16:58:29.808Z,100359.98
2024-01-27T17:01:30.747Z,100359.98
2024-01-27T17:04:32.340Z,100366.61
2024-01-27T17:07:33.547Z,100375.95
2024-01-27T17:10:34.574Z,100383.01
2024-01-27T17:13:35.540Z,100391.24
2024-01-27T17:16:37.812Z,100391.44
2024-01-27T17:19:38.887Z,100388.88
2024-01-27T17:22:40.515Z,100392.02
2024-01-27T17:25:42.645Z,100394.64
2024-01-27T17:28:43.869Z,100398.45
2024-01-27T17:31:47.554Z,100403.45
2024-01-27T17:34:49.566Z,100407.43
2024-01-27T17:37:50.571Z,100413.88
2024-01-27T17:40:52.875Z,100414.91
2024-01-27T17:43:53.831Z,100424.80
2024-01-27T17:46:54.790Z,100427.52
2024-01-27T17:49:56.211Z,100431.41
2024-01-27T17:52:57.294Z,100434.46
2024-01-27T17:56:00.985Z,100438.81
2024-01-27T17:59:02.021Z,100440.54
2024-01-27T18:02:03.115Z,100440.81
2024-01-27T18:05:04.304Z,100450.42
2024-01-27T18:08:05.954Z,100453.63
2024-01-27T18:11:06.976Z,100451.42
2024-01-27T18:14:07.975Z,100456.14
2024-01-27T18:17:09.149Z,100461.30
2024-01-27T18:20:11.310Z,100461.59
2024-01-27T18:23:12.394Z,100462.44
2024-01-27T18:26:13.478Z,100470.17
2024-01-27T18:29:14.474Z,100472.62
2024-01-27T18:32:15.488Z,100478.73
2024-01-27T18:35:16.660Z,100478.94
2024-01-27T18:38:17.839Z,100487.45
2024-01-27T18:41:18.860Z,100497.55
2024-01-27T18:44:20.842Z,100502.42
2024-01-27T18:47:24.993Z,100509.57
2024-01-27T18:50:26.532Z,100512.45
2024-01-27T18:53:28.139Z,100518.23
2024-01-27T18:56:29.192Z,100516.28
2024-01-27T18:59:30.142Z,100527.41
2024-01-27T19:02:31.609Z,100529.13
2024-01-27T19:05:34.123Z,100540.17
2024-01-27T19:08:35.416Z,100549.02
2024-01-27T19:11:36.589Z,100547.95
2024-01-27T19:14:38.157Z,100555.34
2024-01-27T19:17:39.228Z,100558.40
2024-01-27T19:20:40.331Z,100563.39
2024-01-27T19:23:41.285Z,100563.89
2024-01-27T19:26:42.597Z,100569.52
2024-01-27T19:29:44.099Z,100572.02
2024-01-27T19:32:45.592Z,100575.30
2024-01-27T19:35:48.347Z,100577.96
2024-01-27T19:38:49.323Z,100576.98
2024-01-27T19:41:51.812Z,100583.21
2024-01-27T19:44:52.761Z,100582.64
2024-01-27T19:47:53.829Z,100588.57
2024-01-27T19:50:55.379Z,100591.48
2024-01-27T19:53:56.389Z,100594.12
2024-01-27T19:56:57.356Z,100603.30
2024-01-27T19:59:58.665Z,100607.34
2024-01-27T20:03:01.653Z,100609.73
2024-01-27T20:06:04.810Z,100614.80
2024-01-27T20:09:12.440Z,100620.08
2024-01-27T20:12:17.508Z,100622.98
2024-01-27T20:15:18.814Z,100630.13
2024-01-27T20:18:20.485Z,100628.77
2024-01-27T20:21:22.869Z,100628.10
2024-01-27T20:24:23.854Z,100638.59
2024-01-27T20:27:25.065Z,100638.84
2024-01-27T20:30:26.073Z,100648.01
2024-01-27T20:33:31.645Z,100650.32
2024-01-27T20:36:38.629Z,100650.10
2024-01-27T20:39:44.417Z,100656.42
2024-01-27T20:42:45.555Z,100660.59
2024-01-27T20:45:46.577Z,100663.02
2024-01-27T20:48:47.841Z,100668.42
2024-01-27T20:51:51.503Z,100673.25
2024-01-27T20:54:54.529Z,100677.37
2024-01-27T20:57:55.847Z,100677.90
2024-01-27T21:00:56.916Z,100683.64
2024-01-27T23:48:19.640Z,100842.82
2024-01-27T23:51:23.411Z,100847.38
2024-01-27T23:54:24.535Z,100852.08
2024-01-27T23:57:25.545Z,100853.68
